Terminal Aerodrome Forecast
Issued by NWS Jackson, MS

Home | Current Version | Previous Version | Text Only | Print | Product List | Glossary On
Versions: 1 2 3 4 5 6 7 8 9 10 11 12
340
FTUS44 KJAN 081120
TAFGWO
TAF
KGWO 081120Z 0812/0912 29005KT P6SM BKN080
     FM081500 30013G21KT P6SM SCT100 BKN250
     FM081800 29014G22KT P6SM OVC050
     FM090000 28006KT P6SM OVC050
     FM090500 27004KT P6SM SKC=

USA.gov is the U.S. government's official web portal to all federal, state and local government web resources and services.